sensor_id;sensor_type;location;lat;lon;timestamp;P1;durP1;ratioP1;P2;durP2;ratioP2
21886;SDS011;11108;49.988;8.182;2023-02-11T00:01:49;4.67;;;4.27;;
21886;SDS011;11108;49.988;8.182;2023-02-11T00:04:14;4.57;;;4.17;;
21886;SDS011;11108;49.988;8.182;2023-02-11T00:06:40;4.83;;;4.43;;
21886;SDS011;11108;49.988;8.182;2023-02-11T00:09:05;4.10;;;3.73;;
21886;SDS011;11108;49.988;8.182;2023-02-11T00:11:30;4.70;;;4.40;;
21886;SDS011;11108;49.988;8.182;2023-02-11T00:13:56;4.90;;;4.50;;
21886;SDS011;11108;49.988;8.182;2023-02-11T00:16:22;4.37;;;3.97;;
21886;SDS011;11108;49.988;8.182;2023-02-11T00:18:47;5.47;;;4.30;;
21886;SDS011;11108;49.988;8.182;2023-02-11T00:21:15;4.60;;;4.30;;
21886;SDS011;11108;49.988;8.182;2023-02-11T00:23:40;5.33;;;4.50;;
21886;SDS011;11108;49.988;8.182;2023-02-11T00:26:13;5.13;;;4.30;;
21886;SDS011;11108;49.988;8.182;2023-02-11T00:28:39;4.70;;;4.30;;
21886;SDS011;11108;49.988;8.182;2023-02-11T00:31:04;4.27;;;3.97;;
21886;SDS011;11108;49.988;8.182;2023-02-11T00:33:29;4.70;;;4.30;;
21886;SDS011;11108;49.988;8.182;2023-02-11T00:35:54;4.97;;;4.47;;
21886;SDS011;11108;49.988;8.182;2023-02-11T00:38:20;4.10;;;3.80;;
21886;SDS011;11108;49.988;8.182;2023-02-11T00:40:45;5.97;;;4.70;;
21886;SDS011;11108;49.988;8.182;2023-02-11T00:43:10;4.43;;;4.10;;
21886;SDS011;11108;49.988;8.182;2023-02-11T00:45:35;4.30;;;3.90;;
21886;SDS011;11108;49.988;8.182;2023-02-11T00:48:01;5.80;;;4.57;;
21886;SDS011;11108;49.988;8.182;2023-02-11T00:50:26;4.47;;;4.13;;
21886;SDS011;11108;49.988;8.182;2023-02-11T00:52:51;4.50;;;4.20;;
21886;SDS011;11108;49.988;8.182;2023-02-11T00:55:16;4.80;;;4.40;;
21886;SDS011;11108;49.988;8.182;2023-02-11T00:57:42;5.87;;;4.30;;
21886;SDS011;11108;49.988;8.182;2023-02-11T01:00:07;4.90;;;4.47;;
21886;SDS011;11108;49.988;8.182;2023-02-11T01:02:33;5.20;;;4.80;;
21886;SDS011;11108;49.988;8.182;2023-02-11T01:04:58;4.63;;;4.33;;
21886;SDS011;11108;49.988;8.182;2023-02-11T01:07:24;4.53;;;4.17;;
21886;SDS011;11108;49.988;8.182;2023-02-11T01:09:49;5.23;;;4.83;;
21886;SDS011;11108;49.988;8.182;2023-02-11T01:12:14;4.90;;;4.43;;
21886;SDS011;11108;49.988;8.182;2023-02-11T01:14:40;5.63;;;4.87;;
21886;SDS011;11108;49.988;8.182;2023-02-11T01:17:05;4.43;;;4.13;;
21886;SDS011;11108;49.988;8.182;2023-02-11T01:19:30;4.40;;;4.00;;
21886;SDS011;11108;49.988;8.182;2023-02-11T01:21:56;4.47;;;4.17;;
21886;SDS011;11108;49.988;8.182;2023-02-11T01:24:21;4.60;;;4.23;;
21886;SDS011;11108;49.988;8.182;2023-02-11T01:26:46;4.40;;;4.00;;
21886;SDS011;11108;49.988;8.182;2023-02-11T01:29:11;4.13;;;3.83;;
21886;SDS011;11108;49.988;8.182;2023-02-11T01:31:37;4.63;;;4.33;;
21886;SDS011;11108;49.988;8.182;2023-02-11T01:34:02;4.60;;;4.20;;
21886;SDS011;11108;49.988;8.182;2023-02-11T01:36:27;4.73;;;4.33;;
21886;SDS011;11108;49.988;8.182;2023-02-11T01:38:52;5.00;;;4.60;;
21886;SDS011;11108;49.988;8.182;2023-02-11T01:41:18;5.00;;;4.60;;
21886;SDS011;11108;49.988;8.182;2023-02-11T01:43:44;4.90;;;4.50;;
21886;SDS011;11108;49.988;8.182;2023-02-11T01:46:16;4.43;;;4.13;;
21886;SDS011;11108;49.988;8.182;2023-02-11T01:48:44;4.57;;;4.20;;
21886;SDS011;11108;49.988;8.182;2023-02-11T01:51:20;4.67;;;4.27;;
21886;SDS011;11108;49.988;8.182;2023-02-11T01:53:45;4.83;;;4.23;;
21886;SDS011;11108;49.988;8.182;2023-02-11T01:56:31;4.20;;;3.90;;
21886;SDS011;11108;49.988;8.182;2023-02-11T01:59:17;4.27;;;3.97;;
21886;SDS011;11108;49.988;8.182;2023-02-11T02:01:44;4.80;;;4.40;;
21886;SDS011;11108;49.988;8.182;2023-02-11T02:04:11;4.87;;;4.47;;
21886;SDS011;11108;49.988;8.182;2023-02-11T02:06:48;4.37;;;4.07;;
21886;SDS011;11108;49.988;8.182;2023-02-11T02:09:15;4.37;;;3.97;;
21886;SDS011;11108;49.988;8.182;2023-02-11T02:11:42;4.30;;;4.00;;
21886;SDS011;11108;49.988;8.182;2023-02-11T02:14:08;4.93;;;4.43;;
21886;SDS011;11108;49.988;8.182;2023-02-11T02:16:34;4.93;;;4.50;;
21886;SDS011;11108;49.988;8.182;2023-02-11T02:24:37;3.90;;;3.60;;
21886;SDS011;11108;49.988;8.182;2023-02-11T02:35:01;4.93;;;4.43;;
21886;SDS011;11108;49.988;8.182;2023-02-11T02:37:49;4.10;;;3.80;;
21886;SDS011;11108;49.988;8.182;2023-02-11T02:40:18;4.37;;;4.07;;
21886;SDS011;11108;49.988;8.182;2023-02-11T02:42:44;3.77;;;3.47;;
21886;SDS011;11108;49.988;8.182;2023-02-11T02:45:10;4.70;;;4.30;;
21886;SDS011;11108;49.988;8.182;2023-02-11T02:47:36;4.77;;;4.37;;
21886;SDS011;11108;49.988;8.182;2023-02-11T02:50:02;4.13;;;3.77;;
21886;SDS011;11108;49.988;8.182;2023-02-11T03:08:06;3.97;;;3.77;;
21886;SDS011;11108;49.988;8.182;2023-02-11T03:10:35;4.60;;;4.27;;
21886;SDS011;11108;49.988;8.182;2023-02-11T03:13:01;4.27;;;4.00;;
21886;SDS011;11108;49.988;8.182;2023-02-11T03:15:27;4.20;;;3.90;;
21886;SDS011;11108;49.988;8.182;2023-02-11T03:17:55;4.07;;;3.77;;
21886;SDS011;11108;49.988;8.182;2023-02-11T03:20:22;4.03;;;3.73;;
21886;SDS011;11108;49.988;8.182;2023-02-11T03:25:13;4.30;;;4.00;;
21886;SDS011;11108;49.988;8.182;2023-02-11T03:27:51;4.60;;;4.20;;
21886;SDS011;11108;49.988;8.182;2023-02-11T03:30:23;4.03;;;3.73;;
21886;SDS011;11108;49.988;8.182;2023-02-11T03:32:51;4.20;;;4.00;;
21886;SDS011;11108;49.988;8.182;2023-02-11T03:35:27;4.43;;;4.13;;
21886;SDS011;11108;49.988;8.182;2023-02-11T03:37:58;4.50;;;4.20;;
21886;SDS011;11108;49.988;8.182;2023-02-11T03:40:28;4.70;;;4.30;;
21886;SDS011;11108;49.988;8.182;2023-02-11T03:42:57;4.10;;;3.80;;
21886;SDS011;11108;49.988;8.182;2023-02-11T03:45:23;4.50;;;4.10;;
21886;SDS011;11108;49.988;8.182;2023-02-11T03:48:32;4.43;;;4.07;;
21886;SDS011;11108;49.988;8.182;2023-02-11T03:50:37;4.37;;;3.97;;
21886;SDS011;11108;49.988;8.182;2023-02-11T03:53:03;4.63;;;4.23;;
21886;SDS011;11108;49.988;8.182;2023-02-11T03:55:29;4.70;;;4.30;;
21886;SDS011;11108;49.988;8.182;2023-02-11T03:57:55;4.27;;;3.97;;
21886;SDS011;11108;49.988;8.182;2023-02-11T04:00:20;4.30;;;3.93;;
21886;SDS011;11108;49.988;8.182;2023-02-11T04:02:45;3.90;;;3.60;;
21886;SDS011;11108;49.988;8.182;2023-02-11T04:05:12;3.90;;;3.60;;
21886;SDS011;11108;49.988;8.182;2023-02-11T04:07:37;4.37;;;3.97;;
21886;SDS011;11108;49.988;8.182;2023-02-11T04:10:03;4.10;;;3.80;;
21886;SDS011;11108;49.988;8.182;2023-02-11T04:12:28;4.57;;;4.17;;
21886;SDS011;11108;49.988;8.182;2023-02-11T04:14:53;4.97;;;4.47;;
21886;SDS011;11108;49.988;8.182;2023-02-11T04:17:19;4.20;;;3.90;;
21886;SDS011;11108;49.988;8.182;2023-02-11T04:19:44;4.73;;;4.33;;
21886;SDS011;11108;49.988;8.182;2023-02-11T04:22:09;4.40;;;4.10;;
21886;SDS011;11108;49.988;8.182;2023-02-11T04:24:34;4.53;;;4.17;;
21886;SDS011;11108;49.988;8.182;2023-02-11T04:27:00;4.03;;;3.83;;
21886;SDS011;11108;49.988;8.182;2023-02-11T04:29:25;4.30;;;4.00;;
21886;SDS011;11108;49.988;8.182;2023-02-11T04:31:52;4.60;;;4.30;;
21886;SDS011;11108;49.988;8.182;2023-02-11T04:34:17;4.70;;;4.30;;
21886;SDS011;11108;49.988;8.182;2023-02-11T04:36:43;4.97;;;4.57;;
21886;SDS011;11108;49.988;8.182;2023-02-11T04:39:08;4.43;;;4.13;;
21886;SDS011;11108;49.988;8.182;2023-02-11T04:41:33;4.37;;;3.97;;
21886;SDS011;11108;49.988;8.182;2023-02-11T04:43:58;4.53;;;4.23;;
21886;SDS011;11108;49.988;8.182;2023-02-11T04:46:24;4.63;;;4.23;;
21886;SDS011;11108;49.988;8.182;2023-02-11T04:48:49;3.73;;;3.43;;
21886;SDS011;11108;49.988;8.182;2023-02-11T04:51:14;4.37;;;4.07;;
21886;SDS011;11108;49.988;8.182;2023-02-11T04:53:40;4.20;;;3.90;;
21886;SDS011;11108;49.988;8.182;2023-02-11T04:56:05;3.87;;;3.57;;
21886;SDS011;11108;49.988;8.182;2023-02-11T04:58:30;3.73;;;3.50;;
21886;SDS011;11108;49.988;8.182;2023-02-11T05:01:03;3.77;;;3.47;;
21886;SDS011;11108;49.988;8.182;2023-02-11T05:03:29;4.73;;;4.43;;
21886;SDS011;11108;49.988;8.182;2023-02-11T05:05:54;4.40;;;4.00;;
21886;SDS011;11108;49.988;8.182;2023-02-11T05:08:20;4.20;;;3.80;;
21886;SDS011;11108;49.988;8.182;2023-02-11T05:10:45;4.50;;;4.00;;
21886;SDS011;11108;49.988;8.182;2023-02-11T05:13:11;3.73;;;3.53;;
21886;SDS011;11108;49.988;8.182;2023-02-11T05:15:36;4.20;;;3.90;;
21886;SDS011;11108;49.988;8.182;2023-02-11T05:18:01;4.27;;;3.97;;
21886;SDS011;11108;49.988;8.182;2023-02-11T05:20:27;4.10;;;3.80;;
21886;SDS011;11108;49.988;8.182;2023-02-11T05:22:52;4.13;;;3.83;;
21886;SDS011;11108;49.988;8.182;2023-02-11T05:25:17;4.43;;;4.10;;
21886;SDS011;11108;49.988;8.182;2023-02-11T05:27:44;4.13;;;3.83;;
21886;SDS011;11108;49.988;8.182;2023-02-11T05:30:09;4.53;;;4.23;;
21886;SDS011;11108;49.988;8.182;2023-02-11T05:32:34;4.13;;;3.83;;
21886;SDS011;11108;49.988;8.182;2023-02-11T05:35:00;4.67;;;4.27;;
21886;SDS011;11108;49.988;8.182;2023-02-11T05:37:25;4.13;;;3.83;;
21886;SDS011;11108;49.988;8.182;2023-02-11T05:39:50;4.10;;;3.80;;
21886;SDS011;11108;49.988;8.182;2023-02-11T05:42:15;4.23;;;3.90;;
21886;SDS011;11108;49.988;8.182;2023-02-11T05:44:41;4.13;;;3.83;;
21886;SDS011;11108;49.988;8.182;2023-02-11T05:47:06;4.17;;;3.77;;
21886;SDS011;11108;49.988;8.182;2023-02-11T05:49:32;4.47;;;4.07;;
21886;SDS011;11108;49.988;8.182;2023-02-11T05:51:58;4.13;;;3.67;;
21886;SDS011;11108;49.988;8.182;2023-02-11T05:54:23;4.57;;;4.20;;
21886;SDS011;11108;49.988;8.182;2023-02-11T05:56:48;3.97;;;3.67;;
21886;SDS011;11108;49.988;8.182;2023-02-11T05:59:13;4.17;;;3.80;;
21886;SDS011;11108;49.988;8.182;2023-02-11T06:01:39;4.27;;;3.87;;
21886;SDS011;11108;49.988;8.182;2023-02-11T06:04:04;4.10;;;3.80;;
21886;SDS011;11108;49.988;8.182;2023-02-11T06:06:29;4.33;;;4.03;;
21886;SDS011;11108;49.988;8.182;2023-02-11T06:08:55;3.93;;;3.63;;
21886;SDS011;11108;49.988;8.182;2023-02-11T06:11:20;4.27;;;3.97;;
21886;SDS011;11108;49.988;8.182;2023-02-11T06:13:45;4.40;;;4.07;;
21886;SDS011;11108;49.988;8.182;2023-02-11T06:16:11;4.30;;;4.00;;
21886;SDS011;11108;49.988;8.182;2023-02-11T06:18:36;3.40;;;3.13;;
21886;SDS011;11108;49.988;8.182;2023-02-11T06:21:04;4.60;;;4.10;;
21886;SDS011;11108;49.988;8.182;2023-02-11T06:23:30;4.50;;;4.10;;
21886;SDS011;11108;49.988;8.182;2023-02-11T06:25:59;4.40;;;4.10;;
21886;SDS011;11108;49.988;8.182;2023-02-11T06:28:24;4.90;;;4.43;;
21886;SDS011;11108;49.988;8.182;2023-02-11T06:30:50;4.00;;;3.70;;
21886;SDS011;11108;49.988;8.182;2023-02-11T06:33:15;3.70;;;3.50;;
21886;SDS011;11108;49.988;8.182;2023-02-11T06:35:40;3.97;;;3.73;;
21886;SDS011;11108;49.988;8.182;2023-02-11T06:38:06;4.03;;;3.73;;
21886;SDS011;11108;49.988;8.182;2023-02-11T06:40:31;4.33;;;4.03;;
21886;SDS011;11108;49.988;8.182;2023-02-11T06:42:56;3.90;;;3.60;;
21886;SDS011;11108;49.988;8.182;2023-02-11T06:45:21;4.03;;;3.73;;
21886;SDS011;11108;49.988;8.182;2023-02-11T06:47:46;3.60;;;3.30;;
21886;SDS011;11108;49.988;8.182;2023-02-11T06:50:12;4.30;;;4.00;;
21886;SDS011;11108;49.988;8.182;2023-02-11T06:52:38;3.97;;;3.67;;
21886;SDS011;11108;49.988;8.182;2023-02-11T06:55:03;3.90;;;3.60;;
21886;SDS011;11108;49.988;8.182;2023-02-11T06:57:29;4.00;;;3.70;;
21886;SDS011;11108;49.988;8.182;2023-02-11T06:59:54;4.30;;;4.00;;
21886;SDS011;11108;49.988;8.182;2023-02-11T07:02:19;4.83;;;4.53;;
21886;SDS011;11108;49.988;8.182;2023-02-11T07:04:45;4.40;;;4.10;;
21886;SDS011;11108;49.988;8.182;2023-02-11T07:07:10;4.83;;;4.40;;
21886;SDS011;11108;49.988;8.182;2023-02-11T07:09:35;4.43;;;4.03;;
21886;SDS011;11108;49.988;8.182;2023-02-11T07:12:00;4.80;;;4.40;;
21886;SDS011;11108;49.988;8.182;2023-02-11T07:14:26;4.53;;;4.13;;
21886;SDS011;11108;49.988;8.182;2023-02-11T07:16:51;5.17;;;4.77;;
21886;SDS011;11108;49.988;8.182;2023-02-11T07:19:16;4.70;;;4.30;;
21886;SDS011;11108;49.988;8.182;2023-02-11T07:21:41;3.93;;;3.60;;
21886;SDS011;11108;49.988;8.182;2023-02-11T07:24:07;5.37;;;4.03;;
21886;SDS011;11108;49.988;8.182;2023-02-11T07:26:33;5.13;;;4.37;;
21886;SDS011;11108;49.988;8.182;2023-02-11T07:28:58;4.77;;;3.77;;
21886;SDS011;11108;49.988;8.182;2023-02-11T07:31:24;4.87;;;4.07;;
21886;SDS011;11108;49.988;8.182;2023-02-11T07:33:50;5.43;;;4.10;;
21886;SDS011;11108;49.988;8.182;2023-02-11T07:36:16;12.23;;;5.03;;
21886;SDS011;11108;49.988;8.182;2023-02-11T07:38:41;6.70;;;4.47;;
21886;SDS011;11108;49.988;8.182;2023-02-11T07:41:08;5.30;;;4.80;;
21886;SDS011;11108;49.988;8.182;2023-02-11T07:43:34;5.57;;;5.07;;
21886;SDS011;11108;49.988;8.182;2023-02-11T07:46:07;5.03;;;4.60;;
21886;SDS011;11108;49.988;8.182;2023-02-11T07:48:32;5.03;;;4.40;;
21886;SDS011;11108;49.988;8.182;2023-02-11T07:51:05;5.17;;;4.70;;
21886;SDS011;11108;49.988;8.182;2023-02-11T07:53:30;4.90;;;4.50;;
21886;SDS011;11108;49.988;8.182;2023-02-11T07:55:55;6.53;;;5.40;;
21886;SDS011;11108;49.988;8.182;2023-02-11T07:58:20;5.93;;;4.80;;
21886;SDS011;11108;49.988;8.182;2023-02-11T08:00:46;7.73;;;4.57;;
21886;SDS011;11108;49.988;8.182;2023-02-11T08:03:11;5.17;;;4.47;;
21886;SDS011;11108;49.988;8.182;2023-02-11T08:05:37;4.80;;;4.40;;
21886;SDS011;11108;49.988;8.182;2023-02-11T08:08:02;6.17;;;4.50;;
21886;SDS011;11108;49.988;8.182;2023-02-11T08:10:28;4.33;;;3.93;;
21886;SDS011;11108;49.988;8.182;2023-02-11T08:12:53;4.37;;;3.97;;
21886;SDS011;11108;49.988;8.182;2023-02-11T08:15:19;4.37;;;4.07;;
21886;SDS011;11108;49.988;8.182;2023-02-11T08:17:44;4.13;;;3.83;;
21886;SDS011;11108;49.988;8.182;2023-02-11T08:20:09;4.27;;;3.53;;
21886;SDS011;11108;49.988;8.182;2023-02-11T08:22:35;4.20;;;3.80;;
21886;SDS011;11108;49.988;8.182;2023-02-11T08:25:00;4.60;;;4.20;;
21886;SDS011;11108;49.988;8.182;2023-02-11T08:27:26;4.60;;;4.20;;
21886;SDS011;11108;49.988;8.182;2023-02-11T08:29:52;4.57;;;4.20;;
21886;SDS011;11108;49.988;8.182;2023-02-11T08:32:17;5.53;;;4.63;;
21886;SDS011;11108;49.988;8.182;2023-02-11T08:34:42;4.60;;;4.20;;
21886;SDS011;11108;49.988;8.182;2023-02-11T08:37:08;8.43;;;4.03;;
21886;SDS011;11108;49.988;8.182;2023-02-11T08:39:33;4.93;;;4.53;;
21886;SDS011;11108;49.988;8.182;2023-02-11T08:41:58;4.50;;;4.10;;
21886;SDS011;11108;49.988;8.182;2023-02-11T08:44:23;4.27;;;3.87;;
21886;SDS011;11108;49.988;8.182;2023-02-11T08:46:49;4.40;;;4.07;;
21886;SDS011;11108;49.988;8.182;2023-02-11T08:49:15;4.83;;;4.43;;
21886;SDS011;11108;49.988;8.182;2023-02-11T08:51:40;4.47;;;4.17;;
21886;SDS011;11108;49.988;8.182;2023-02-11T08:54:06;4.60;;;4.30;;
21886;SDS011;11108;49.988;8.182;2023-02-11T08:56:34;4.70;;;4.23;;
21886;SDS011;11108;49.988;8.182;2023-02-11T08:58:59;4.20;;;3.80;;
21886;SDS011;11108;49.988;8.182;2023-02-11T09:01:25;4.23;;;3.93;;
21886;SDS011;11108;49.988;8.182;2023-02-11T09:03:51;3.97;;;3.67;;
21886;SDS011;11108;49.988;8.182;2023-02-11T09:06:16;4.07;;;3.77;;
21886;SDS011;11108;49.988;8.182;2023-02-11T09:08:43;3.53;;;3.23;;
21886;SDS011;11108;49.988;8.182;2023-02-11T09:11:09;4.57;;;4.23;;
21886;SDS011;11108;49.988;8.182;2023-02-11T09:13:34;4.03;;;3.73;;
21886;SDS011;11108;49.988;8.182;2023-02-11T09:16:00;3.80;;;3.50;;
21886;SDS011;11108;49.988;8.182;2023-02-11T09:18:26;4.30;;;4.00;;
21886;SDS011;11108;49.988;8.182;2023-02-11T09:20:52;4.07;;;3.77;;
21886;SDS011;11108;49.988;8.182;2023-02-11T09:23:17;4.33;;;3.93;;
21886;SDS011;11108;49.988;8.182;2023-02-11T09:25:43;4.00;;;3.70;;
21886;SDS011;11108;49.988;8.182;2023-02-11T09:28:08;4.07;;;3.77;;
21886;SDS011;11108;49.988;8.182;2023-02-11T09:30:34;3.97;;;3.67;;
21886;SDS011;11108;49.988;8.182;2023-02-11T09:33:00;3.77;;;3.47;;
21886;SDS011;11108;49.988;8.182;2023-02-11T09:35:25;3.93;;;3.63;;
21886;SDS011;11108;49.988;8.182;2023-02-11T09:37:50;4.00;;;3.70;;
21886;SDS011;11108;49.988;8.182;2023-02-11T09:40:16;4.63;;;4.30;;
21886;SDS011;11108;49.988;8.182;2023-02-11T09:42:44;4.20;;;3.80;;
21886;SDS011;11108;49.988;8.182;2023-02-11T09:45:27;4.10;;;3.80;;
21886;SDS011;11108;49.988;8.182;2023-02-11T09:47:56;3.77;;;3.50;;
21886;SDS011;11108;49.988;8.182;2023-02-11T09:51:11;3.77;;;3.53;;
21886;SDS011;11108;49.988;8.182;2023-02-11T09:55:44;4.27;;;3.87;;
21886;SDS011;11108;49.988;8.182;2023-02-11T09:58:14;4.20;;;3.80;;
21886;SDS011;11108;49.988;8.182;2023-02-11T10:00:47;3.43;;;3.23;;
21886;SDS011;11108;49.988;8.182;2023-02-11T10:08:38;3.93;;;3.43;;
21886;SDS011;11108;49.988;8.182;2023-02-11T10:16:30;4.03;;;3.60;;
21886;SDS011;11108;49.988;8.182;2023-02-11T10:21:50;3.53;;;3.33;;
21886;SDS011;11108;49.988;8.182;2023-02-11T10:24:16;3.90;;;3.60;;
21886;SDS011;11108;49.988;8.182;2023-02-11T10:26:42;3.70;;;3.40;;
21886;SDS011;11108;49.988;8.182;2023-02-11T10:29:51;3.60;;;3.40;;
21886;SDS011;11108;49.988;8.182;2023-02-11T10:31:57;3.53;;;3.23;;
21886;SDS011;11108;49.988;8.182;2023-02-11T10:34:23;5.13;;;4.30;;
21886;SDS011;11108;49.988;8.182;2023-02-11T10:36:48;4.53;;;3.77;;
21886;SDS011;11108;49.988;8.182;2023-02-11T10:39:14;3.77;;;3.47;;
21886;SDS011;11108;49.988;8.182;2023-02-11T10:41:45;3.87;;;3.57;;
21886;SDS011;11108;49.988;8.182;2023-02-11T10:46:45;3.40;;;3.20;;
21886;SDS011;11108;49.988;8.182;2023-02-11T10:49:10;3.60;;;3.40;;
21886;SDS011;11108;49.988;8.182;2023-02-11T10:52:10;3.87;;;3.13;;
21886;SDS011;11108;49.988;8.182;2023-02-11T10:54:36;4.03;;;3.63;;
21886;SDS011;11108;49.988;8.182;2023-02-11T10:57:01;3.50;;;3.30;;
21886;SDS011;11108;49.988;8.182;2023-02-11T10:59:28;3.10;;;2.80;;
21886;SDS011;11108;49.988;8.182;2023-02-11T11:01:58;3.33;;;3.13;;
21886;SDS011;11108;49.988;8.182;2023-02-11T11:04:36;3.87;;;3.30;;
21886;SDS011;11108;49.988;8.182;2023-02-11T11:07:18;3.90;;;3.50;;
21886;SDS011;11108;49.988;8.182;2023-02-11T11:09:52;3.90;;;3.60;;
21886;SDS011;11108;49.988;8.182;2023-02-11T11:17:35;3.43;;;3.23;;
21886;SDS011;11108;49.988;8.182;2023-02-11T11:25:42;4.03;;;3.73;;
21886;SDS011;11108;49.988;8.182;2023-02-11T11:28:16;3.70;;;3.40;;
21886;SDS011;11108;49.988;8.182;2023-02-11T11:30:43;3.20;;;3.00;;
21886;SDS011;11108;49.988;8.182;2023-02-11T11:33:19;3.27;;;3.03;;
21886;SDS011;11108;49.988;8.182;2023-02-11T11:35:53;3.47;;;3.20;;
21886;SDS011;11108;49.988;8.182;2023-02-11T11:38:19;2.97;;;2.77;;
21886;SDS011;11108;49.988;8.182;2023-02-11T11:40:44;3.33;;;3.00;;
21886;SDS011;11108;49.988;8.182;2023-02-11T11:45:34;3.17;;;2.97;;
21886;SDS011;11108;49.988;8.182;2023-02-11T11:48:05;2.83;;;2.63;;
21886;SDS011;11108;49.988;8.182;2023-02-11T11:51:08;3.50;;;3.20;;
21886;SDS011;11108;49.988;8.182;2023-02-11T11:53:30;3.20;;;3.00;;
21886;SDS011;11108;49.988;8.182;2023-02-11T11:55:59;3.43;;;3.17;;
21886;SDS011;11108;49.988;8.182;2023-02-11T11:58:27;3.30;;;3.00;;
21886;SDS011;11108;49.988;8.182;2023-02-11T12:03:46;2.90;;;2.70;;
21886;SDS011;11108;49.988;8.182;2023-02-11T12:09:30;2.87;;;2.67;;
21886;SDS011;11108;49.988;8.182;2023-02-11T12:14:18;2.97;;;2.77;;
21886;SDS011;11108;49.988;8.182;2023-02-11T12:16:52;2.87;;;2.67;;
21886;SDS011;11108;49.988;8.182;2023-02-11T12:22:04;3.10;;;2.90;;
21886;SDS011;11108;49.988;8.182;2023-02-11T12:27:02;3.13;;;2.83;;
21886;SDS011;11108;49.988;8.182;2023-02-11T12:29:33;2.73;;;2.53;;
21886;SDS011;11108;49.988;8.182;2023-02-11T12:32:09;2.80;;;2.70;;
21886;SDS011;11108;49.988;8.182;2023-02-11T12:37:28;2.77;;;2.67;;
21886;SDS011;11108;49.988;8.182;2023-02-11T12:40:00;2.70;;;2.50;;
21886;SDS011;11108;49.988;8.182;2023-02-11T12:42:49;2.80;;;2.70;;
21886;SDS011;11108;49.988;8.182;2023-02-11T12:56:16;2.47;;;2.37;;
21886;SDS011;11108;49.988;8.182;2023-02-11T12:58:43;2.80;;;2.60;;
21886;SDS011;11108;49.988;8.182;2023-02-11T13:01:09;2.67;;;2.47;;
21886;SDS011;11108;49.988;8.182;2023-02-11T13:03:40;2.53;;;2.43;;
21886;SDS011;11108;49.988;8.182;2023-02-11T13:06:08;3.07;;;2.87;;
21886;SDS011;11108;49.988;8.182;2023-02-11T13:11:20;2.60;;;2.40;;
21886;SDS011;11108;49.988;8.182;2023-02-11T13:21:28;2.70;;;2.60;;
21886;SDS011;11108;49.988;8.182;2023-02-11T13:24:00;2.87;;;2.57;;
21886;SDS011;11108;49.988;8.182;2023-02-11T13:31:35;2.47;;;2.27;;
21886;SDS011;11108;49.988;8.182;2023-02-11T13:34:00;2.30;;;2.20;;
21886;SDS011;11108;49.988;8.182;2023-02-11T13:36:27;2.27;;;2.17;;
21886;SDS011;11108;49.988;8.182;2023-02-11T13:39:01;2.50;;;2.30;;
21886;SDS011;11108;49.988;8.182;2023-02-11T13:41:31;2.70;;;2.50;;
21886;SDS011;11108;49.988;8.182;2023-02-11T13:44:01;2.67;;;2.47;;
21886;SDS011;11108;49.988;8.182;2023-02-11T13:46:28;2.70;;;2.50;;
21886;SDS011;11108;49.988;8.182;2023-02-11T13:48:54;2.23;;;2.13;;
21886;SDS011;11108;49.988;8.182;2023-02-11T13:51:36;3.10;;;2.80;;
21886;SDS011;11108;49.988;8.182;2023-02-11T13:54:03;2.27;;;2.17;;
21886;SDS011;11108;49.988;8.182;2023-02-11T13:58:57;2.17;;;2.07;;
21886;SDS011;11108;49.988;8.182;2023-02-11T14:05:00;2.43;;;2.33;;
21886;SDS011;11108;49.988;8.182;2023-02-11T14:10:47;2.20;;;2.10;;
21886;SDS011;11108;49.988;8.182;2023-02-11T14:13:29;2.10;;;2.00;;
21886;SDS011;11108;49.988;8.182;2023-02-11T14:16:14;2.50;;;2.30;;
21886;SDS011;11108;49.988;8.182;2023-02-11T14:21:11;2.40;;;2.30;;
21886;SDS011;11108;49.988;8.182;2023-02-11T14:23:40;2.23;;;2.13;;
21886;SDS011;11108;49.988;8.182;2023-02-11T14:26:15;2.10;;;2.00;;
21886;SDS011;11108;49.988;8.182;2023-02-11T14:28:48;1.80;;;1.70;;
21886;SDS011;11108;49.988;8.182;2023-02-11T14:31:25;1.87;;;1.83;;
21886;SDS011;11108;49.988;8.182;2023-02-11T14:39:17;2.00;;;1.90;;
21886;SDS011;11108;49.988;8.182;2023-02-11T14:41:44;2.30;;;2.20;;
21886;SDS011;11108;49.988;8.182;2023-02-11T14:44:15;2.20;;;2.10;;
21886;SDS011;11108;49.988;8.182;2023-02-11T14:46:45;2.27;;;2.17;;
21886;SDS011;11108;49.988;8.182;2023-02-11T14:49:15;2.00;;;1.90;;
21886;SDS011;11108;49.988;8.182;2023-02-11T14:51:44;2.30;;;2.20;;
21886;SDS011;11108;49.988;8.182;2023-02-11T14:54:11;2.20;;;2.10;;
21886;SDS011;11108;49.988;8.182;2023-02-11T14:56:39;2.07;;;1.97;;
21886;SDS011;11108;49.988;8.182;2023-02-11T14:59:20;2.00;;;1.90;;
21886;SDS011;11108;49.988;8.182;2023-02-11T15:01:50;2.00;;;1.90;;
21886;SDS011;11108;49.988;8.182;2023-02-11T15:04:23;1.90;;;1.80;;
21886;SDS011;11108;49.988;8.182;2023-02-11T15:06:49;1.83;;;1.73;;
21886;SDS011;11108;49.988;8.182;2023-02-11T15:09:22;2.30;;;2.10;;
21886;SDS011;11108;49.988;8.182;2023-02-11T15:11:51;2.00;;;1.90;;
21886;SDS011;11108;49.988;8.182;2023-02-11T15:14:25;1.87;;;1.77;;
21886;SDS011;11108;49.988;8.182;2023-02-11T15:16:51;1.90;;;1.80;;
21886;SDS011;11108;49.988;8.182;2023-02-11T15:19:43;2.10;;;2.00;;
21886;SDS011;11108;49.988;8.182;2023-02-11T15:24:44;2.33;;;2.23;;
21886;SDS011;11108;49.988;8.182;2023-02-11T15:27:10;1.63;;;1.60;;
21886;SDS011;11108;49.988;8.182;2023-02-11T15:29:48;1.90;;;1.80;;
21886;SDS011;11108;49.988;8.182;2023-02-11T15:34:39;1.90;;;1.83;;
21886;SDS011;11108;49.988;8.182;2023-02-11T15:37:05;2.00;;;1.90;;
21886;SDS011;11108;49.988;8.182;2023-02-11T15:39:37;1.70;;;1.70;;
21886;SDS011;11108;49.988;8.182;2023-02-11T15:45:10;1.80;;;1.70;;
21886;SDS011;11108;49.988;8.182;2023-02-11T15:47:48;1.80;;;1.70;;
21886;SDS011;11108;49.988;8.182;2023-02-11T15:50:21;1.80;;;1.70;;
21886;SDS011;11108;49.988;8.182;2023-02-11T15:52:47;1.70;;;1.60;;
21886;SDS011;11108;49.988;8.182;2023-02-11T15:55:13;1.73;;;1.63;;
21886;SDS011;11108;49.988;8.182;2023-02-11T15:57:53;1.87;;;1.77;;
21886;SDS011;11108;49.988;8.182;2023-02-11T16:00:20;2.33;;;2.20;;
21886;SDS011;11108;49.988;8.182;2023-02-11T16:02:46;1.70;;;1.60;;
21886;SDS011;11108;49.988;8.182;2023-02-11T16:05:28;2.20;;;2.10;;
21886;SDS011;11108;49.988;8.182;2023-02-11T16:07:54;1.60;;;1.60;;
21886;SDS011;11108;49.988;8.182;2023-02-11T16:10:22;2.00;;;1.90;;
21886;SDS011;11108;49.988;8.182;2023-02-11T16:12:51;1.90;;;1.80;;
21886;SDS011;11108;49.988;8.182;2023-02-11T16:18:13;1.83;;;1.73;;
21886;SDS011;11108;49.988;8.182;2023-02-11T16:20:38;1.83;;;1.73;;
21886;SDS011;11108;49.988;8.182;2023-02-11T16:23:04;1.70;;;1.60;;
21886;SDS011;11108;49.988;8.182;2023-02-11T16:25:30;2.03;;;1.90;;
21886;SDS011;11108;49.988;8.182;2023-02-11T16:27:55;2.13;;;1.97;;
21886;SDS011;11108;49.988;8.182;2023-02-11T16:30:34;1.57;;;1.50;;
21886;SDS011;11108;49.988;8.182;2023-02-11T16:33:03;1.77;;;1.67;;
21886;SDS011;11108;49.988;8.182;2023-02-11T16:35:29;1.40;;;1.30;;
21886;SDS011;11108;49.988;8.182;2023-02-11T16:37:54;1.80;;;1.70;;
21886;SDS011;11108;49.988;8.182;2023-02-11T16:40:20;2.23;;;2.13;;
21886;SDS011;11108;49.988;8.182;2023-02-11T16:42:47;1.70;;;1.60;;
21886;SDS011;11108;49.988;8.182;2023-02-11T16:45:12;1.60;;;1.57;;
21886;SDS011;11108;49.988;8.182;2023-02-11T16:47:39;1.70;;;1.60;;
21886;SDS011;11108;49.988;8.182;2023-02-11T16:50:07;1.50;;;1.50;;
21886;SDS011;11108;49.988;8.182;2023-02-11T16:52:32;1.80;;;1.70;;
21886;SDS011;11108;49.988;8.182;2023-02-11T16:54:58;1.30;;;1.30;;
21886;SDS011;11108;49.988;8.182;2023-02-11T16:57:24;1.73;;;1.63;;
21886;SDS011;11108;49.988;8.182;2023-02-11T16:59:49;1.80;;;1.70;;
21886;SDS011;11108;49.988;8.182;2023-02-11T17:02:15;1.50;;;1.50;;
21886;SDS011;11108;49.988;8.182;2023-02-11T17:04:42;1.70;;;1.60;;
21886;SDS011;11108;49.988;8.182;2023-02-11T17:07:07;1.80;;;1.77;;